sensor_id;sensor_type;location;lat;lon;timestamp;P1;durP1;ratioP1;P2;durP2;ratioP2
70455;SDS011;57916;51.996;5.180;2023-07-30T00:00:12;7.22;;;1.85;;
70455;SDS011;57916;51.996;5.180;2023-07-30T00:02:39;4.30;;;1.58;;
70455;SDS011;57916;51.996;5.180;2023-07-30T00:05:06;5.57;;;1.58;;
70455;SDS011;57916;51.996;5.180;2023-07-30T00:07:34;3.65;;;1.60;;
70455;SDS011;57916;51.996;5.180;2023-07-30T00:10:01;8.43;;;1.80;;
70455;SDS011;57916;51.996;5.180;2023-07-30T00:12:28;8.40;;;1.80;;
70455;SDS011;57916;51.996;5.180;2023-07-30T00:14:55;4.93;;;1.90;;
70455;SDS011;57916;51.996;5.180;2023-07-30T00:17:22;9.60;;;2.03;;
70455;SDS011;57916;51.996;5.180;2023-07-30T00:19:49;8.35;;;2.08;;
70455;SDS011;57916;51.996;5.180;2023-07-30T00:22:16;5.43;;;1.90;;
70455;SDS011;57916;51.996;5.180;2023-07-30T00:24:49;6.95;;;1.80;;
70455;SDS011;57916;51.996;5.180;2023-07-30T00:27:16;7.80;;;1.60;;
70455;SDS011;57916;51.996;5.180;2023-07-30T00:29:43;7.63;;;1.80;;
70455;SDS011;57916;51.996;5.180;2023-07-30T00:32:09;5.60;;;1.73;;
70455;SDS011;57916;51.996;5.180;2023-07-30T00:34:37;11.10;;;2.00;;
70455;SDS011;57916;51.996;5.180;2023-07-30T00:37:04;7.65;;;1.90;;
70455;SDS011;57916;51.996;5.180;2023-07-30T00:39:32;10.20;;;1.90;;
70455;SDS011;57916;51.996;5.180;2023-07-30T00:41:59;6.53;;;2.03;;
70455;SDS011;57916;51.996;5.180;2023-07-30T00:44:26;7.30;;;1.83;;
70455;SDS011;57916;51.996;5.180;2023-07-30T00:46:53;6.80;;;1.88;;
70455;SDS011;57916;51.996;5.180;2023-07-30T00:49:20;8.50;;;1.90;;
70455;SDS011;57916;51.996;5.180;2023-07-30T00:51:47;12.00;;;2.15;;
70455;SDS011;57916;51.996;5.180;2023-07-30T00:54:14;8.48;;;2.25;;
70455;SDS011;57916;51.996;5.180;2023-07-30T00:56:42;13.50;;;2.20;;
70455;SDS011;57916;51.996;5.180;2023-07-30T00:59:16;9.18;;;1.98;;
70455;SDS011;57916;51.996;5.180;2023-07-30T01:01:44;13.48;;;2.30;;
70455;SDS011;57916;51.996;5.180;2023-07-30T01:04:16;8.45;;;2.35;;
70455;SDS011;57916;51.996;5.180;2023-07-30T01:06:44;11.27;;;2.10;;
70455;SDS011;57916;51.996;5.180;2023-07-30T01:09:11;10.48;;;2.30;;
70455;SDS011;57916;51.996;5.180;2023-07-30T01:11:40;10.80;;;2.25;;
70455;SDS011;57916;51.996;5.180;2023-07-30T01:14:09;9.30;;;2.17;;
70455;SDS011;57916;51.996;5.180;2023-07-30T01:16:37;7.38;;;2.47;;
70455;SDS011;57916;51.996;5.180;2023-07-30T01:19:05;7.22;;;1.88;;
70455;SDS011;57916;51.996;5.180;2023-07-30T01:21:33;10.07;;;2.42;;
70455;SDS011;57916;51.996;5.180;2023-07-30T01:24:02;12.57;;;2.33;;
70455;SDS011;57916;51.996;5.180;2023-07-30T01:26:31;11.17;;;2.23;;
70455;SDS011;57916;51.996;5.180;2023-07-30T01:29:03;17.63;;;2.60;;
70455;SDS011;57916;51.996;5.180;2023-07-30T01:31:35;13.27;;;2.55;;
70455;SDS011;57916;51.996;5.180;2023-07-30T01:34:05;9.50;;;2.20;;
70455;SDS011;57916;51.996;5.180;2023-07-30T01:36:36;10.63;;;2.30;;
70455;SDS011;57916;51.996;5.180;2023-07-30T01:39:05;11.57;;;2.38;;
70455;SDS011;57916;51.996;5.180;2023-07-30T01:41:33;14.93;;;2.45;;
70455;SDS011;57916;51.996;5.180;2023-07-30T01:44:01;17.05;;;2.53;;
70455;SDS011;57916;51.996;5.180;2023-07-30T01:46:28;11.37;;;2.30;;
70455;SDS011;57916;51.996;5.180;2023-07-30T01:48:56;15.57;;;3.30;;
70455;SDS011;57916;51.996;5.180;2023-07-30T01:51:23;13.37;;;2.20;;
70455;SDS011;57916;51.996;5.180;2023-07-30T01:53:51;17.08;;;3.28;;
70455;SDS011;57916;51.996;5.180;2023-07-30T01:56:18;11.98;;;2.60;;
70455;SDS011;57916;51.996;5.180;2023-07-30T01:58:45;11.67;;;2.60;;
70455;SDS011;57916;51.996;5.180;2023-07-30T02:01:12;16.42;;;2.63;;
70455;SDS011;57916;51.996;5.180;2023-07-30T02:03:39;14.80;;;3.20;;
70455;SDS011;57916;51.996;5.180;2023-07-30T02:06:06;21.90;;;2.83;;
70455;SDS011;57916;51.996;5.180;2023-07-30T02:08:33;22.45;;;3.03;;
70455;SDS011;57916;51.996;5.180;2023-07-30T02:11:00;20.45;;;2.90;;
70455;SDS011;57916;51.996;5.180;2023-07-30T02:13:28;19.45;;;3.10;;
70455;SDS011;57916;51.996;5.180;2023-07-30T02:15:55;20.07;;;2.97;;
70455;SDS011;57916;51.996;5.180;2023-07-30T02:18:22;14.40;;;2.83;;
70455;SDS011;57916;51.996;5.180;2023-07-30T02:20:49;19.20;;;3.45;;
70455;SDS011;57916;51.996;5.180;2023-07-30T02:23:17;18.55;;;3.25;;
70455;SDS011;57916;51.996;5.180;2023-07-30T02:25:44;19.35;;;3.08;;
70455;SDS011;57916;51.996;5.180;2023-07-30T02:28:11;18.00;;;3.17;;
70455;SDS011;57916;51.996;5.180;2023-07-30T02:30:40;20.73;;;3.15;;
70455;SDS011;57916;51.996;5.180;2023-07-30T02:33:08;18.58;;;3.20;;
70455;SDS011;57916;51.996;5.180;2023-07-30T02:35:35;20.83;;;3.58;;
70455;SDS011;57916;51.996;5.180;2023-07-30T02:38:02;21.00;;;3.45;;
70455;SDS011;57916;51.996;5.180;2023-07-30T02:40:30;23.67;;;3.67;;
70455;SDS011;57916;51.996;5.180;2023-07-30T02:42:58;21.90;;;3.67;;
70455;SDS011;57916;51.996;5.180;2023-07-30T02:45:25;23.98;;;3.58;;
70455;SDS011;57916;51.996;5.180;2023-07-30T02:47:53;24.88;;;4.20;;
70455;SDS011;57916;51.996;5.180;2023-07-30T02:50:20;28.70;;;3.92;;
70455;SDS011;57916;51.996;5.180;2023-07-30T02:52:47;22.65;;;3.88;;
70455;SDS011;57916;51.996;5.180;2023-07-30T02:55:14;28.13;;;4.38;;
70455;SDS011;57916;51.996;5.180;2023-07-30T02:57:42;17.88;;;3.42;;
70455;SDS011;57916;51.996;5.180;2023-07-30T03:00:09;27.75;;;3.97;;
70455;SDS011;57916;51.996;5.180;2023-07-30T03:02:37;19.17;;;3.70;;
70455;SDS011;57916;51.996;5.180;2023-07-30T03:05:04;24.38;;;3.95;;
70455;SDS011;57916;51.996;5.180;2023-07-30T03:07:32;27.75;;;4.25;;
70455;SDS011;57916;51.996;5.180;2023-07-30T03:09:59;22.13;;;4.22;;
70455;SDS011;57916;51.996;5.180;2023-07-30T03:12:26;26.80;;;4.20;;
70455;SDS011;57916;51.996;5.180;2023-07-30T03:14:53;26.27;;;4.82;;
70455;SDS011;57916;51.996;5.180;2023-07-30T03:17:20;23.75;;;4.35;;
70455;SDS011;57916;51.996;5.180;2023-07-30T03:19:47;23.42;;;4.10;;
70455;SDS011;57916;51.996;5.180;2023-07-30T03:22:15;28.92;;;4.20;;
70455;SDS011;57916;51.996;5.180;2023-07-30T03:24:45;25.20;;;4.07;;
70455;SDS011;57916;51.996;5.180;2023-07-30T03:27:13;30.55;;;4.65;;
70455;SDS011;57916;51.996;5.180;2023-07-30T03:29:40;24.92;;;4.28;;
70455;SDS011;57916;51.996;5.180;2023-07-30T03:32:07;25.95;;;4.43;;
70455;SDS011;57916;51.996;5.180;2023-07-30T03:34:35;33.43;;;4.60;;
70455;SDS011;57916;51.996;5.180;2023-07-30T03:37:02;31.13;;;5.03;;
70455;SDS011;57916;51.996;5.180;2023-07-30T03:39:30;28.67;;;4.75;;
70455;SDS011;57916;51.996;5.180;2023-07-30T03:41:57;31.60;;;4.97;;
70455;SDS011;57916;51.996;5.180;2023-07-30T03:44:24;29.13;;;4.85;;
70455;SDS011;57916;51.996;5.180;2023-07-30T03:46:51;25.42;;;4.40;;
70455;SDS011;57916;51.996;5.180;2023-07-30T03:49:18;23.80;;;4.70;;
70455;SDS011;57916;51.996;5.180;2023-07-30T03:51:45;23.23;;;4.60;;
70455;SDS011;57916;51.996;5.180;2023-07-30T03:54:12;28.55;;;5.00;;
70455;SDS011;57916;51.996;5.180;2023-07-30T03:56:39;33.37;;;5.00;;
70455;SDS011;57916;51.996;5.180;2023-07-30T03:59:07;29.45;;;5.30;;
70455;SDS011;57916;51.996;5.180;2023-07-30T04:01:34;31.60;;;4.97;;
70455;SDS011;57916;51.996;5.180;2023-07-30T04:04:02;32.28;;;5.35;;
70455;SDS011;57916;51.996;5.180;2023-07-30T04:06:29;32.50;;;4.75;;
70455;SDS011;57916;51.996;5.180;2023-07-30T04:08:56;33.60;;;5.35;;
70455;SDS011;57916;51.996;5.180;2023-07-30T04:11:24;29.48;;;4.85;;
70455;SDS011;57916;51.996;5.180;2023-07-30T04:13:51;32.50;;;4.90;;
70455;SDS011;57916;51.996;5.180;2023-07-30T04:16:18;26.52;;;5.30;;
70455;SDS011;57916;51.996;5.180;2023-07-30T04:18:45;32.27;;;5.37;;
70455;SDS011;57916;51.996;5.180;2023-07-30T04:21:13;35.00;;;5.68;;
70455;SDS011;57916;51.996;5.180;2023-07-30T04:23:40;28.95;;;4.85;;
70455;SDS011;57916;51.996;5.180;2023-07-30T04:26:07;38.75;;;6.35;;
70455;SDS011;57916;51.996;5.180;2023-07-30T04:28:34;36.05;;;6.35;;
70455;SDS011;57916;51.996;5.180;2023-07-30T04:31:02;34.17;;;6.28;;
70455;SDS011;57916;51.996;5.180;2023-07-30T04:33:29;33.30;;;6.00;;
70455;SDS011;57916;51.996;5.180;2023-07-30T04:35:56;32.63;;;5.80;;
70455;SDS011;57916;51.996;5.180;2023-07-30T04:38:24;38.78;;;6.30;;
70455;SDS011;57916;51.996;5.180;2023-07-30T04:40:51;35.33;;;6.38;;
70455;SDS011;57916;51.996;5.180;2023-07-30T04:43:18;33.95;;;6.03;;
70455;SDS011;57916;51.996;5.180;2023-07-30T04:45:51;38.83;;;6.32;;
70455;SDS011;57916;51.996;5.180;2023-07-30T04:48:18;39.78;;;5.90;;
70455;SDS011;57916;51.996;5.180;2023-07-30T04:50:45;31.03;;;6.37;;
70455;SDS011;57916;51.996;5.180;2023-07-30T04:53:12;33.50;;;6.10;;
70455;SDS011;57916;51.996;5.180;2023-07-30T04:55:39;35.50;;;6.15;;
70455;SDS011;57916;51.996;5.180;2023-07-30T04:58:06;35.28;;;6.47;;
70455;SDS011;57916;51.996;5.180;2023-07-30T05:00:34;39.80;;;6.80;;
70455;SDS011;57916;51.996;5.180;2023-07-30T05:03:01;34.65;;;6.60;;
70455;SDS011;57916;51.996;5.180;2023-07-30T05:05:28;28.80;;;6.23;;
70455;SDS011;57916;51.996;5.180;2023-07-30T05:07:55;35.15;;;6.25;;
70455;SDS011;57916;51.996;5.180;2023-07-30T05:10:23;32.00;;;7.50;;
70455;SDS011;57916;51.996;5.180;2023-07-30T05:12:50;28.45;;;6.00;;
70455;SDS011;57916;51.996;5.180;2023-07-30T05:15:17;29.58;;;6.30;;
70455;SDS011;57916;51.996;5.180;2023-07-30T05:17:44;30.13;;;6.40;;
70455;SDS011;57916;51.996;5.180;2023-07-30T05:20:11;36.05;;;6.72;;
70455;SDS011;57916;51.996;5.180;2023-07-30T05:22:38;29.00;;;7.00;;
70455;SDS011;57916;51.996;5.180;2023-07-30T05:25:06;27.07;;;6.60;;
70455;SDS011;57916;51.996;5.180;2023-07-30T05:27:34;26.73;;;6.68;;
70455;SDS011;57916;51.996;5.180;2023-07-30T05:30:02;30.10;;;6.87;;
70455;SDS011;57916;51.996;5.180;2023-07-30T05:32:29;33.15;;;6.97;;
70455;SDS011;57916;51.996;5.180;2023-07-30T05:34:56;34.83;;;7.00;;
70455;SDS011;57916;51.996;5.180;2023-07-30T05:37:23;30.17;;;6.77;;
70455;SDS011;57916;51.996;5.180;2023-07-30T05:39:50;32.85;;;7.25;;
70455;SDS011;57916;51.996;5.180;2023-07-30T05:42:17;29.27;;;7.10;;
70455;SDS011;57916;51.996;5.180;2023-07-30T05:44:44;38.10;;;8.38;;
70455;SDS011;57916;51.996;5.180;2023-07-30T05:47:11;39.10;;;8.43;;
70455;SDS011;57916;51.996;5.180;2023-07-30T05:49:38;30.67;;;7.28;;
70455;SDS011;57916;51.996;5.180;2023-07-30T05:52:05;33.50;;;7.88;;
70455;SDS011;57916;51.996;5.180;2023-07-30T05:54:32;30.60;;;8.15;;
70455;SDS011;57916;51.996;5.180;2023-07-30T05:56:59;35.95;;;7.93;;
70455;SDS011;57916;51.996;5.180;2023-07-30T05:59:26;37.73;;;8.03;;
70455;SDS011;57916;51.996;5.180;2023-07-30T06:01:55;35.50;;;7.57;;
70455;SDS011;57916;51.996;5.180;2023-07-30T06:04:23;31.05;;;7.53;;
70455;SDS011;57916;51.996;5.180;2023-07-30T06:06:50;31.55;;;8.90;;
70455;SDS011;57916;51.996;5.180;2023-07-30T06:09:17;33.95;;;8.25;;
70455;SDS011;57916;51.996;5.180;2023-07-30T06:11:44;32.17;;;7.57;;
70455;SDS011;57916;51.996;5.180;2023-07-30T06:14:11;32.55;;;7.90;;
70455;SDS011;57916;51.996;5.180;2023-07-30T06:16:38;34.25;;;7.70;;
70455;SDS011;57916;51.996;5.180;2023-07-30T06:19:06;37.03;;;8.10;;
70455;SDS011;57916;51.996;5.180;2023-07-30T06:21:33;36.40;;;7.30;;
70455;SDS011;57916;51.996;5.180;2023-07-30T06:24:00;30.73;;;7.40;;
70455;SDS011;57916;51.996;5.180;2023-07-30T06:26:27;30.35;;;7.00;;
70455;SDS011;57916;51.996;5.180;2023-07-30T06:28:54;34.88;;;7.82;;
70455;SDS011;57916;51.996;5.180;2023-07-30T06:31:21;29.65;;;7.07;;
70455;SDS011;57916;51.996;5.180;2023-07-30T06:33:48;33.83;;;7.20;;
70455;SDS011;57916;51.996;5.180;2023-07-30T06:36:15;33.22;;;7.00;;
70455;SDS011;57916;51.996;5.180;2023-07-30T06:38:42;30.52;;;6.78;;
70455;SDS011;57916;51.996;5.180;2023-07-30T06:41:09;29.73;;;6.28;;
70455;SDS011;57916;51.996;5.180;2023-07-30T06:43:37;27.47;;;5.97;;
70455;SDS011;57916;51.996;5.180;2023-07-30T06:46:04;30.70;;;6.30;;
70455;SDS011;57916;51.996;5.180;2023-07-30T06:48:31;31.20;;;6.43;;
70455;SDS011;57916;51.996;5.180;2023-07-30T06:50:58;21.70;;;5.35;;
70455;SDS011;57916;51.996;5.180;2023-07-30T06:53:25;26.23;;;5.57;;
70455;SDS011;57916;51.996;5.180;2023-07-30T06:55:52;26.27;;;5.90;;
70455;SDS011;57916;51.996;5.180;2023-07-30T06:58:19;23.77;;;5.38;;
70455;SDS011;57916;51.996;5.180;2023-07-30T07:00:46;29.40;;;5.72;;
70455;SDS011;57916;51.996;5.180;2023-07-30T07:03:13;30.67;;;5.63;;
70455;SDS011;57916;51.996;5.180;2023-07-30T07:05:41;29.33;;;5.43;;
70455;SDS011;57916;51.996;5.180;2023-07-30T07:08:10;22.70;;;5.40;;
70455;SDS011;57916;51.996;5.180;2023-07-30T07:10:37;25.63;;;5.85;;
70455;SDS011;57916;51.996;5.180;2023-07-30T07:13:04;25.50;;;5.35;;
70455;SDS011;57916;51.996;5.180;2023-07-30T07:15:31;25.63;;;4.97;;
70455;SDS011;57916;51.996;5.180;2023-07-30T07:17:58;26.98;;;4.60;;
70455;SDS011;57916;51.996;5.180;2023-07-30T07:20:26;21.20;;;4.50;;
70455;SDS011;57916;51.996;5.180;2023-07-30T07:22:54;29.98;;;4.60;;
70455;SDS011;57916;51.996;5.180;2023-07-30T07:25:20;28.08;;;4.35;;
70455;SDS011;57916;51.996;5.180;2023-07-30T07:27:48;22.42;;;4.53;;
70455;SDS011;57916;51.996;5.180;2023-07-30T07:30:15;25.55;;;4.60;;
70455;SDS011;57916;51.996;5.180;2023-07-30T07:32:42;25.50;;;4.97;;
70455;SDS011;57916;51.996;5.180;2023-07-30T07:35:10;27.75;;;4.97;;
70455;SDS011;57916;51.996;5.180;2023-07-30T07:37:36;26.63;;;5.30;;
70455;SDS011;57916;51.996;5.180;2023-07-30T07:40:04;30.42;;;5.57;;
70455;SDS011;57916;51.996;5.180;2023-07-30T07:42:31;25.52;;;5.47;;
70455;SDS011;57916;51.996;5.180;2023-07-30T07:44:58;23.92;;;4.53;;
70455;SDS011;57916;51.996;5.180;2023-07-30T07:47:25;28.63;;;5.10;;
70455;SDS011;57916;51.996;5.180;2023-07-30T07:49:53;30.63;;;5.20;;
70455;SDS011;57916;51.996;5.180;2023-07-30T07:52:20;22.02;;;4.60;;
70455;SDS011;57916;51.996;5.180;2023-07-30T07:54:47;26.05;;;5.22;;
70455;SDS011;57916;51.996;5.180;2023-07-30T07:57:14;22.15;;;4.65;;
70455;SDS011;57916;51.996;5.180;2023-07-30T07:59:41;25.33;;;4.93;;
70455;SDS011;57916;51.996;5.180;2023-07-30T08:02:11;25.35;;;4.78;;
70455;SDS011;57916;51.996;5.180;2023-07-30T08:04:39;26.85;;;4.20;;
70455;SDS011;57916;51.996;5.180;2023-07-30T08:07:06;20.23;;;4.07;;
70455;SDS011;57916;51.996;5.180;2023-07-30T08:09:33;17.25;;;3.42;;
70455;SDS011;57916;51.996;5.180;2023-07-30T08:12:00;17.08;;;3.50;;
70455;SDS011;57916;51.996;5.180;2023-07-30T08:14:28;20.85;;;3.20;;
70455;SDS011;57916;51.996;5.180;2023-07-30T08:16:56;19.02;;;3.72;;
70455;SDS011;57916;51.996;5.180;2023-07-30T08:19:23;18.33;;;3.17;;
70455;SDS011;57916;51.996;5.180;2023-07-30T08:21:50;18.98;;;3.25;;
70455;SDS011;57916;51.996;5.180;2023-07-30T08:24:17;20.58;;;3.63;;
70455;SDS011;57916;51.996;5.180;2023-07-30T08:26:44;19.63;;;3.40;;
70455;SDS011;57916;51.996;5.180;2023-07-30T08:29:13;17.80;;;3.10;;
70455;SDS011;57916;51.996;5.180;2023-07-30T08:31:41;14.75;;;3.00;;
70455;SDS011;57916;51.996;5.180;2023-07-30T08:34:08;15.10;;;3.50;;
70455;SDS011;57916;51.996;5.180;2023-07-30T08:36:35;19.20;;;3.50;;
70455;SDS011;57916;51.996;5.180;2023-07-30T08:39:03;23.73;;;3.50;;
70455;SDS011;57916;51.996;5.180;2023-07-30T08:41:30;18.75;;;3.15;;
70455;SDS011;57916;51.996;5.180;2023-07-30T08:43:58;18.52;;;3.15;;
70455;SDS011;57916;51.996;5.180;2023-07-30T08:46:26;18.85;;;3.58;;
70455;SDS011;57916;51.996;5.180;2023-07-30T08:48:53;14.70;;;3.17;;
70455;SDS011;57916;51.996;5.180;2023-07-30T08:51:24;16.38;;;2.85;;
70455;SDS011;57916;51.996;5.180;2023-07-30T08:53:52;15.68;;;2.60;;
70455;SDS011;57916;51.996;5.180;2023-07-30T08:56:20;14.05;;;2.80;;
70455;SDS011;57916;51.996;5.180;2023-07-30T08:58:48;14.20;;;3.10;;
70455;SDS011;57916;51.996;5.180;2023-07-30T09:01:17;16.63;;;3.20;;
70455;SDS011;57916;51.996;5.180;2023-07-30T09:03:45;17.73;;;3.28;;
70455;SDS011;57916;51.996;5.180;2023-07-30T09:06:16;16.88;;;2.80;;
70455;SDS011;57916;51.996;5.180;2023-07-30T09:08:43;16.83;;;2.47;;
70455;SDS011;57916;51.996;5.180;2023-07-30T09:11:10;14.07;;;2.33;;
70455;SDS011;57916;51.996;5.180;2023-07-30T09:13:38;14.93;;;2.47;;
70455;SDS011;57916;51.996;5.180;2023-07-30T09:16:10;14.35;;;2.70;;
70455;SDS011;57916;51.996;5.180;2023-07-30T09:18:42;12.88;;;2.40;;
70455;SDS011;57916;51.996;5.180;2023-07-30T09:21:10;9.43;;;2.22;;
70455;SDS011;57916;51.996;5.180;2023-07-30T09:23:39;10.57;;;2.00;;
70455;SDS011;57916;51.996;5.180;2023-07-30T09:26:10;14.35;;;2.80;;
70455;SDS011;57916;51.996;5.180;2023-07-30T09:28:39;10.95;;;2.42;;
70455;SDS011;57916;51.996;5.180;2023-07-30T09:31:07;12.77;;;2.05;;
70455;SDS011;57916;51.996;5.180;2023-07-30T09:33:47;13.30;;;2.15;;
70455;SDS011;57916;51.996;5.180;2023-07-30T09:36:14;18.40;;;2.60;;
70455;SDS011;57916;51.996;5.180;2023-07-30T09:38:45;11.60;;;2.35;;
70455;SDS011;57916;51.996;5.180;2023-07-30T09:41:13;15.30;;;2.30;;
70455;SDS011;57916;51.996;5.180;2023-07-30T09:43:41;10.20;;;2.33;;
70455;SDS011;57916;51.996;5.180;2023-07-30T09:46:08;8.73;;;2.03;;
70455;SDS011;57916;51.996;5.180;2023-07-30T09:48:36;11.63;;;2.13;;
70455;SDS011;57916;51.996;5.180;2023-07-30T09:51:03;14.32;;;2.38;;
70455;SDS011;57916;51.996;5.180;2023-07-30T09:53:32;9.30;;;1.95;;
70455;SDS011;57916;51.996;5.180;2023-07-30T09:56:04;11.80;;;2.10;;
70455;SDS011;57916;51.996;5.180;2023-07-30T09:58:36;10.32;;;1.88;;
70455;SDS011;57916;51.996;5.180;2023-07-30T10:01:04;9.60;;;1.73;;
70455;SDS011;57916;51.996;5.180;2023-07-30T10:03:32;8.45;;;1.85;;
70455;SDS011;57916;51.996;5.180;2023-07-30T10:06:02;8.95;;;1.88;;
70455;SDS011;57916;51.996;5.180;2023-07-30T10:08:31;7.47;;;1.60;;
70455;SDS011;57916;51.996;5.180;2023-07-30T10:11:05;10.68;;;1.70;;
70455;SDS011;57916;51.996;5.180;2023-07-30T10:13:35;9.13;;;1.60;;
70455;SDS011;57916;51.996;5.180;2023-07-30T10:16:08;8.93;;;1.40;;
70455;SDS011;57916;51.996;5.180;2023-07-30T10:18:40;9.95;;;1.70;;
70455;SDS011;57916;51.996;5.180;2023-07-30T10:21:08;7.30;;;1.50;;
70455;SDS011;57916;51.996;5.180;2023-07-30T10:23:46;7.47;;;1.45;;
70455;SDS011;57916;51.996;5.180;2023-07-30T10:26:29;15.32;;;1.60;;
70455;SDS011;57916;51.996;5.180;2023-07-30T10:29:09;6.22;;;1.38;;
70455;SDS011;57916;51.996;5.180;2023-07-30T10:31:40;7.18;;;1.58;;
70455;SDS011;57916;51.996;5.180;2023-07-30T10:34:08;8.20;;;1.30;;
70455;SDS011;57916;51.996;5.180;2023-07-30T10:36:43;7.07;;;1.37;;
70455;SDS011;57916;51.996;5.180;2023-07-30T10:41:45;7.88;;;1.27;;
70455;SDS011;57916;51.996;5.180;2023-07-30T10:46:53;6.50;;;1.35;;
70455;SDS011;57916;51.996;5.180;2023-07-30T10:49:21;6.75;;;1.20;;
70455;SDS011;57916;51.996;5.180;2023-07-30T10:51:50;7.70;;;1.27;;
70455;SDS011;57916;51.996;5.180;2023-07-30T10:54:19;5.60;;;1.50;;
70455;SDS011;57916;51.996;5.180;2023-07-30T10:56:46;5.32;;;1.30;;
70455;SDS011;57916;51.996;5.180;2023-07-30T10:59:14;6.35;;;1.35;;
70455;SDS011;57916;51.996;5.180;2023-07-30T11:01:45;8.02;;;1.00;;
70455;SDS011;57916;51.996;5.180;2023-07-30T11:04:19;10.33;;;1.03;;
70455;SDS011;57916;51.996;5.180;2023-07-30T11:06:50;4.93;;;1.00;;
70455;SDS011;57916;51.996;5.180;2023-07-30T11:09:18;9.10;;;1.20;;
70455;SDS011;57916;51.996;5.180;2023-07-30T11:11:50;5.30;;;1.00;;
70455;SDS011;57916;51.996;5.180;2023-07-30T11:14:18;5.03;;;1.10;;
70455;SDS011;57916;51.996;5.180;2023-07-30T11:16:50;4.05;;;1.20;;
70455;SDS011;57916;51.996;5.180;2023-07-30T11:19:19;5.80;;;1.08;;
70455;SDS011;57916;51.996;5.180;2023-07-30T11:21:49;5.82;;;1.20;;
70455;SDS011;57916;51.996;5.180;2023-07-30T11:24:20;8.07;;;1.43;;
70455;SDS011;57916;51.996;5.180;2023-07-30T11:26:57;7.28;;;1.25;;
70455;SDS011;57916;51.996;5.180;2023-07-30T11:29:25;5.05;;;1.23;;
70455;SDS011;57916;51.996;5.180;2023-07-30T11:31:55;4.88;;;1.20;;
70455;SDS011;57916;51.996;5.180;2023-07-30T11:34:24;6.43;;;1.20;;
70455;SDS011;57916;51.996;5.180;2023-07-30T11:36:53;6.05;;;1.00;;
70455;SDS011;57916;51.996;5.180;2023-07-30T11:39:21;6.17;;;1.27;;
70455;SDS011;57916;51.996;5.180;2023-07-30T11:41:50;5.07;;;1.08;;
70455;SDS011;57916;51.996;5.180;2023-07-30T11:44:34;8.82;;;1.20;;
70455;SDS011;57916;51.996;5.180;2023-07-30T11:47:08;4.85;;;0.85;;
70455;SDS011;57916;51.996;5.180;2023-07-30T11:49:37;5.53;;;1.17;;
70455;SDS011;57916;51.996;5.180;2023-07-30T11:52:05;4.18;;;1.13;;
70455;SDS011;57916;51.996;5.180;2023-07-30T11:54:34;6.83;;;1.00;;
70455;SDS011;57916;51.996;5.180;2023-07-30T11:57:01;6.85;;;1.33;;
70455;SDS011;57916;51.996;5.180;2023-07-30T11:59:28;7.27;;;1.13;;
70455;SDS011;57916;51.996;5.180;2023-07-30T12:01:57;7.82;;;1.20;;
70455;SDS011;57916;51.996;5.180;2023-07-30T12:04:25;6.97;;;1.33;;
70455;SDS011;57916;51.996;5.180;2023-07-30T12:06:56;8.18;;;1.50;;
70455;SDS011;57916;51.996;5.180;2023-07-30T12:09:24;7.63;;;1.30;;
70455;SDS011;57916;51.996;5.180;2023-07-30T12:12:00;8.57;;;1.10;;
70455;SDS011;57916;51.996;5.180;2023-07-30T12:14:29;7.05;;;1.20;;
70455;SDS011;57916;51.996;5.180;2023-07-30T12:17:10;5.88;;;1.00;;
70455;SDS011;57916;51.996;5.180;2023-07-30T12:19:37;3.78;;;1.08;;
70455;SDS011;57916;51.996;5.180;2023-07-30T12:22:04;8.80;;;1.10;;
70455;SDS011;57916;51.996;5.180;2023-07-30T12:24:31;8.60;;;1.20;;
70455;SDS011;57916;51.996;5.180;2023-07-30T12:26:58;6.68;;;1.02;;
70455;SDS011;57916;51.996;5.180;2023-07-30T12:29:26;4.78;;;1.02;;
70455;SDS011;57916;51.996;5.180;2023-07-30T12:31:54;4.70;;;1.10;;
70455;SDS011;57916;51.996;5.180;2023-07-30T12:34:23;3.72;;;1.10;;
70455;SDS011;57916;51.996;5.180;2023-07-30T12:36:50;7.55;;;1.30;;
70455;SDS011;57916;51.996;5.180;2023-07-30T12:39:18;4.45;;;1.20;;
70455;SDS011;57916;51.996;5.180;2023-07-30T12:41:45;6.97;;;1.30;;
70455;SDS011;57916;51.996;5.180;2023-07-30T12:44:12;4.78;;;1.20;;
70455;SDS011;57916;51.996;5.180;2023-07-30T12:46:39;5.80;;;1.10;;
70455;SDS011;57916;51.996;5.180;2023-07-30T12:49:06;8.27;;;1.20;;
70455;SDS011;57916;51.996;5.180;2023-07-30T12:51:33;6.45;;;1.20;;
70455;SDS011;57916;51.996;5.180;2023-07-30T12:54:00;4.03;;;0.80;;
70455;SDS011;57916;51.996;5.180;2023-07-30T12:56:27;6.68;;;1.02;;
70455;SDS011;57916;51.996;5.180;2023-07-30T12:58:54;15.98;;;1.48;;
70455;SDS011;57916;51.996;5.180;2023-07-30T13:01:22;3.95;;;0.70;;
70455;SDS011;57916;51.996;5.180;2023-07-30T13:03:50;3.92;;;0.88;;
70455;SDS011;57916;51.996;5.180;2023-07-30T13:06:18;7.68;;;1.35;;
70455;SDS011;57916;51.996;5.180;2023-07-30T13:08:46;2.83;;;0.80;;
70455;SDS011;57916;51.996;5.180;2023-07-30T13:11:13;6.77;;;0.70;;
70455;SDS011;57916;51.996;5.180;2023-07-30T13:13:40;2.42;;;0.85;;
70455;SDS011;57916;51.996;5.180;2023-07-30T13:16:07;4.05;;;0.80;;
70455;SDS011;57916;51.996;5.180;2023-07-30T13:18:34;5.57;;;1.13;;
70455;SDS011;57916;51.996;5.180;2023-07-30T13:21:01;5.82;;;0.95;;
70455;SDS011;57916;51.996;5.180;2023-07-30T13:23:30;3.97;;;0.90;;
70455;SDS011;57916;51.996;5.180;2023-07-30T13:25:58;6.40;;;1.15;;
70455;SDS011;57916;51.996;5.180;2023-07-30T13:28:25;9.23;;;1.27;;
70455;SDS011;57916;51.996;5.180;2023-07-30T13:30:53;4.88;;;1.00;;
70455;SDS011;57916;51.996;5.180;2023-07-30T13:33:20;7.90;;;1.05;;
70455;SDS011;57916;51.996;5.180;2023-07-30T13:35:48;9.60;;;0.85;;
70455;SDS011;57916;51.996;5.180;2023-07-30T13:38:15;3.45;;;0.60;;
70455;SDS011;57916;51.996;5.180;2023-07-30T13:40:43;5.30;;;0.93;;
70455;SDS011;57916;51.996;5.180;2023-07-30T13:43:10;4.47;;;0.75;;
70455;SDS011;57916;51.996;5.180;2023-07-30T13:45:37;6.10;;;0.90;;
70455;SDS011;57916;51.996;5.180;2023-07-30T13:48:04;5.03;;;1.00;;
70455;SDS011;57916;51.996;5.180;2023-07-30T13:50:31;6.35;;;1.30;;
70455;SDS011;57916;51.996;5.180;2023-07-30T13:52:58;2.30;;;0.70;;
70455;SDS011;57916;51.996;5.180;2023-07-30T13:55:25;6.50;;;0.82;;
70455;SDS011;57916;51.996;5.180;2023-07-30T13:57:52;2.88;;;0.80;;
70455;SDS011;57916;51.996;5.180;2023-07-30T14:00:19;8.20;;;1.00;;
70455;SDS011;57916;51.996;5.180;2023-07-30T14:02:46;6.72;;;0.88;;
70455;SDS011;57916;51.996;5.180;2023-07-30T14:05:14;5.70;;;0.82;;
70455;SDS011;57916;51.996;5.180;2023-07-30T14:07:41;4.53;;;0.93;;
70455;SDS011;57916;51.996;5.180;2023-07-30T14:10:09;5.40;;;0.98;;
70455;SDS011;57916;51.996;5.180;2023-07-30T14:12:36;3.80;;;0.90;;
70455;SDS011;57916;51.996;5.180;2023-07-30T14:15:03;4.78;;;1.10;;
70455;SDS011;57916;51.996;5.180;2023-07-30T14:17:31;3.63;;;0.90;;
70455;SDS011;57916;51.996;5.180;2023-07-30T14:19:57;10.05;;;1.30;;
70455;SDS011;57916;51.996;5.180;2023-07-30T14:22:24;9.10;;;1.38;;
70455;SDS011;57916;51.996;5.180;2023-07-30T14:24:51;7.67;;;1.20;;
70455;SDS011;57916;51.996;5.180;2023-07-30T14:27:19;9.95;;;1.20;;
70455;SDS011;57916;51.996;5.180;2023-07-30T14:29:46;5.32;;;1.33;;
70455;SDS011;57916;51.996;5.180;2023-07-30T14:32:13;7.50;;;1.25;;
70455;SDS011;57916;51.996;5.180;2023-07-30T14:34:40;3.95;;;1.30;;
70455;SDS011;57916;51.996;5.180;2023-07-30T14:37:07;9.02;;;1.80;;
70455;SDS011;57916;51.996;5.180;2023-07-30T14:39:35;10.73;;;1.35;;
70455;SDS011;57916;51.996;5.180;2023-07-30T14:42:02;8.50;;;1.40;;
70455;SDS011;57916;51.996;5.180;2023-07-30T14:44:30;4.05;;;1.38;;
70455;SDS011;57916;51.996;5.180;2023-07-30T14:46:57;7.35;;;1.50;;
70455;SDS011;57916;51.996;5.180;2023-07-30T14:49:25;6.05;;;1.60;;